createdAt,value
2022-12-06T00:00:43.867Z,44.11
2022-12-06T00:01:44.036Z,50.00
2022-12-06T00:02:43.888Z,44.30
2022-12-06T00:03:43.943Z,50.53
2022-12-06T00:04:43.848Z,43.95
2022-12-06T00:05:46.370Z,44.78
2022-12-06T00:06:44.810Z,61.21
2022-12-06T00:07:43.900Z,42.83
2022-12-06T00:08:43.887Z,42.54
2022-12-06T00:09:43.926Z,53.81
2022-12-06T00:10:43.777Z,57.91
2022-12-06T00:11:44.409Z,42.57
2022-12-06T00:12:43.761Z,52.32
2022-12-06T00:13:43.791Z,50.42
2022-12-06T00:14:44.387Z,47.93
2022-12-06T00:15:44.629Z,50.43
2022-12-06T00:16:43.802Z,43.16
2022-12-06T00:17:43.963Z,47.34
2022-12-06T00:18:43.708Z,42.15
2022-12-06T00:19:43.788Z,52.08
2022-12-06T00:20:43.754Z,57.39
2022-12-06T00:21:43.897Z,48.90
2022-12-06T00:22:43.702Z,49.54
2022-12-06T00:23:43.726Z,50.67
2022-12-06T00:24:44.410Z,49.39
2022-12-06T00:25:43.672Z,50.25
2022-12-06T00:26:43.724Z,41.69
2022-12-06T00:27:43.727Z,42.92
2022-12-06T00:28:43.892Z,49.57
2022-12-06T00:29:43.686Z,55.18
2022-12-06T00:30:43.644Z,45.61
2022-12-06T00:31:44.831Z,55.62
2022-12-06T00:32:43.649Z,42.10
2022-12-06T00:33:43.667Z,41.64
2022-12-06T00:34:44.449Z,42.06
2022-12-06T00:35:43.620Z,44.59
2022-12-06T00:36:44.388Z,51.54
2022-12-06T00:37:43.578Z,41.68
2022-12-06T00:38:43.587Z,41.74
2022-12-06T00:39:43.588Z,50.03
2022-12-06T00:40:43.593Z,48.72
2022-12-06T00:41:43.577Z,59.48
2022-12-06T00:42:43.549Z,48.11
2022-12-06T00:43:43.511Z,47.45
2022-12-06T00:44:43.525Z,48.80
2022-12-06T00:45:43.563Z,41.78
2022-12-06T00:46:44.138Z,48.29
2022-12-06T00:47:43.536Z,41.54
2022-12-06T00:48:43.615Z,41.47
2022-12-06T00:49:43.497Z,41.69
2022-12-06T00:50:43.504Z,49.53
2022-12-06T00:51:43.464Z,41.87
2022-12-06T00:52:43.564Z,43.48
2022-12-06T00:53:43.503Z,51.44
2022-12-06T00:54:43.450Z,49.48
2022-12-06T00:55:43.492Z,42.02
2022-12-06T00:56:43.523Z,50.22
2022-12-06T00:57:43.468Z,50.17
2022-12-06T00:58:43.451Z,51.70
2022-12-06T00:59:43.421Z,53.09
2022-12-06T01:00:43.414Z,42.80
2022-12-06T01:01:43.546Z,41.84
2022-12-06T01:02:43.466Z,48.66
2022-12-06T01:03:44.599Z,41.61
2022-12-06T01:04:43.406Z,41.48
2022-12-06T01:05:43.422Z,42.02
2022-12-06T01:06:43.388Z,41.71
2022-12-06T01:07:43.469Z,46.37
2022-12-06T01:08:43.413Z,43.76
2022-12-06T01:09:43.425Z,41.62
2022-12-06T01:10:43.419Z,53.70
2022-12-06T01:11:43.358Z,56.51
2022-12-06T01:12:43.343Z,42.59
2022-12-06T01:13:43.488Z,54.78
2022-12-06T01:14:43.347Z,58.45
2022-12-06T01:15:43.304Z,47.21
2022-12-06T01:16:43.355Z,41.79
2022-12-06T01:17:43.320Z,41.86
2022-12-06T01:18:43.371Z,50.00
2022-12-06T01:19:43.335Z,42.46
2022-12-06T01:20:43.249Z,59.20
2022-12-06T01:21:43.238Z,51.42
2022-12-06T01:22:43.242Z,63.22
2022-12-06T01:23:43.249Z,54.23
2022-12-06T01:24:43.255Z,54.27
2022-12-06T01:25:43.222Z,47.98
2022-12-06T01:26:43.257Z,54.86
2022-12-06T01:27:43.203Z,54.72
2022-12-06T01:28:43.188Z,42.43
2022-12-06T01:29:43.179Z,51.00
2022-12-06T01:30:43.258Z,57.32
2022-12-06T01:31:43.154Z,56.27
2022-12-06T01:32:43.134Z,52.77
2022-12-06T01:33:43.141Z,44.42
2022-12-06T01:34:45.366Z,49.39
2022-12-06T01:35:43.174Z,49.28
2022-12-06T01:36:43.200Z,41.91
2022-12-06T01:37:43.115Z,42.11
2022-12-06T01:38:43.147Z,43.24
2022-12-06T01:39:43.333Z,52.94
2022-12-06T01:40:43.156Z,42.42
2022-12-06T01:41:43.165Z,48.68
2022-12-06T01:42:43.063Z,49.06
2022-12-06T01:43:43.180Z,49.51
2022-12-06T01:44:43.066Z,62.21
2022-12-06T01:45:43.124Z,42.10
2022-12-06T01:46:43.159Z,48.48
2022-12-06T01:47:43.061Z,55.68
2022-12-06T01:48:43.031Z,49.67
2022-12-06T01:49:43.003Z,43.99
2022-12-06T01:50:43.015Z,50.01
2022-12-06T01:51:43.022Z,50.56
2022-12-06T01:52:42.997Z,50.34
2022-12-06T01:53:42.971Z,42.81
2022-12-06T01:54:42.982Z,54.03
2022-12-06T01:55:42.963Z,46.37
2022-12-06T01:56:43.051Z,45.44
2022-12-06T01:57:42.980Z,48.66
2022-12-06T01:58:43.580Z,48.45
2022-12-06T01:59:42.977Z,51.43
2022-12-06T02:00:42.902Z,50.79
2022-12-06T02:01:42.995Z,45.98
2022-12-06T02:02:42.972Z,43.71
2022-12-06T02:03:43.605Z,62.05
2022-12-06T02:04:45.594Z,50.19
2022-12-06T02:05:42.893Z,54.55
2022-12-06T02:06:42.881Z,48.08
2022-12-06T02:07:42.963Z,49.56
2022-12-06T02:08:42.876Z,55.88
2022-12-06T02:09:42.884Z,46.28
2022-12-06T02:10:42.918Z,49.92
2022-12-06T02:11:42.839Z,49.35
2022-12-06T02:12:42.838Z,42.91
2022-12-06T02:13:42.857Z,48.38
2022-12-06T02:14:44.579Z,49.62
2022-12-06T02:15:42.797Z,49.98
2022-12-06T02:16:44.636Z,60.02
2022-12-06T02:17:42.790Z,47.69
2022-12-06T02:18:42.792Z,51.22
2022-12-06T02:19:42.787Z,50.02
2022-12-06T02:20:42.773Z,55.24
2022-12-06T02:21:42.756Z,49.49
2022-12-06T02:22:42.751Z,41.94
2022-12-06T02:23:42.738Z,41.78
2022-12-06T02:24:42.769Z,41.74
2022-12-06T02:25:43.613Z,46.54
2022-12-06T02:26:43.722Z,44.80
2022-12-06T02:27:42.704Z,41.77
2022-12-06T02:28:42.799Z,51.03
2022-12-06T02:29:43.019Z,41.56
2022-12-06T02:30:43.655Z,41.30
2022-12-06T02:31:43.042Z,41.39
2022-12-06T02:32:42.665Z,41.39
2022-12-06T02:33:42.682Z,41.60
2022-12-06T02:34:44.076Z,44.51
2022-12-06T02:35:42.646Z,41.79
2022-12-06T02:36:42.665Z,41.64
2022-12-06T02:37:42.633Z,55.44
2022-12-06T02:38:43.568Z,47.83
2022-12-06T02:39:42.624Z,41.58
2022-12-06T02:40:42.623Z,41.61
2022-12-06T02:41:42.617Z,41.53
2022-12-06T02:42:42.601Z,41.32
2022-12-06T02:43:42.595Z,41.74
2022-12-06T02:44:42.585Z,43.42
2022-12-06T02:45:42.583Z,43.89
2022-12-06T02:46:42.733Z,43.82
2022-12-06T02:47:42.838Z,43.71
2022-12-06T02:48:42.579Z,42.02
2022-12-06T02:49:42.565Z,41.47
2022-12-06T02:50:42.536Z,41.38
2022-12-06T02:51:42.519Z,41.47
2022-12-06T02:52:42.592Z,50.00
2022-12-06T02:53:42.555Z,45.79
2022-12-06T02:54:42.523Z,41.39
2022-12-06T02:55:42.520Z,44.72
2022-12-06T02:56:42.497Z,51.20
2022-12-06T02:57:42.488Z,53.63
2022-12-06T02:58:42.512Z,53.38
2022-12-06T02:59:42.502Z,42.98
2022-12-06T03:00:42.463Z,41.40
2022-12-06T03:01:42.579Z,41.51
2022-12-06T03:02:42.525Z,48.45
2022-12-06T03:03:42.595Z,45.64
2022-12-06T03:04:42.411Z,47.88
2022-12-06T03:05:43.450Z,41.96
2022-12-06T03:06:42.417Z,47.05
2022-12-06T03:07:42.488Z,48.41
2022-12-06T03:08:42.408Z,46.40
2022-12-06T03:09:42.392Z,46.18
2022-12-06T03:10:42.702Z,44.15
2022-12-06T03:11:42.374Z,42.42
2022-12-06T03:12:42.355Z,57.19
2022-12-06T03:13:42.356Z,55.09
2022-12-06T03:14:43.019Z,50.84
2022-12-06T03:15:42.421Z,53.77
2022-12-06T03:16:42.339Z,50.23
2022-12-06T03:17:42.363Z,48.98
2022-12-06T03:19:14.240Z,44.15
2022-12-06T03:19:42.336Z,67.55
2022-12-06T03:20:42.308Z,57.64
2022-12-06T03:21:42.287Z,51.77
2022-12-06T03:22:42.293Z,47.67
2022-12-06T03:23:42.292Z,60.65
2022-12-06T03:24:42.288Z,44.08
2022-12-06T03:25:42.272Z,46.30
2022-12-06T03:26:42.274Z,43.83
2022-12-06T03:27:42.288Z,48.77
2022-12-06T03:28:42.333Z,48.51
2022-12-06T03:29:42.255Z,48.35
2022-12-06T03:30:42.304Z,60.85
2022-12-06T03:31:42.266Z,42.17
2022-12-06T03:32:42.233Z,49.48
2022-12-06T03:33:42.227Z,42.06
2022-12-06T03:34:42.193Z,44.86
2022-12-06T03:35:42.193Z,55.43
2022-12-06T03:36:42.202Z,52.80
2022-12-06T03:37:42.226Z,44.67
2022-12-06T03:38:42.165Z,50.16
2022-12-06T03:39:42.186Z,49.54
2022-12-06T03:40:42.178Z,55.48
2022-12-06T03:41:42.196Z,54.08
2022-12-06T03:42:42.143Z,43.61
2022-12-06T03:43:42.130Z,49.01
2022-12-06T03:44:42.143Z,44.30
2022-12-06T03:45:42.166Z,51.46
2022-12-06T03:46:42.174Z,63.30
2022-12-06T03:47:42.113Z,52.03
2022-12-06T04:04:10.256Z,55.77
2022-12-06T04:05:10.187Z,53.51
2022-12-06T04:06:10.203Z,49.80
2022-12-06T04:07:10.227Z,58.85
2022-12-06T04:08:11.540Z,61.89
2022-12-06T04:09:11.346Z,47.91
2022-12-06T04:10:11.285Z,50.70
2022-12-06T04:11:11.279Z,56.39
2022-12-06T04:12:11.367Z,58.31
2022-12-06T04:13:15.287Z,58.28
2022-12-06T04:14:12.303Z,61.92
2022-12-06T04:15:11.277Z,50.77
2022-12-06T04:16:11.285Z,51.86
2022-12-06T04:17:11.245Z,62.07
2022-12-06T04:18:11.260Z,54.79
2022-12-06T04:19:11.334Z,58.47
2022-12-06T04:20:11.231Z,58.76
2022-12-06T04:21:11.202Z,61.02
2022-12-06T04:22:11.204Z,63.98
2022-12-06T04:23:11.217Z,58.25
2022-12-06T04:24:11.179Z,63.47
2022-12-06T04:25:11.176Z,63.16
2022-12-06T04:26:11.160Z,64.23
2022-12-06T04:27:11.159Z,65.55
2022-12-06T04:28:11.166Z,59.22
2022-12-06T04:29:11.166Z,64.61
2022-12-06T04:30:11.223Z,50.71
2022-12-06T04:31:11.175Z,65.35
2022-12-06T04:32:11.136Z,62.22
2022-12-06T04:33:11.133Z,59.07
2022-12-06T04:34:11.147Z,64.68
2022-12-06T04:35:11.113Z,67.16
2022-12-06T04:36:11.098Z,63.49
2022-12-06T04:37:11.082Z,60.43
2022-12-06T04:38:11.070Z,58.86
2022-12-06T04:39:12.427Z,69.35
2022-12-06T04:40:11.055Z,60.67
2022-12-06T04:41:11.109Z,65.26
2022-12-06T04:42:11.044Z,63.88
2022-12-06T04:43:11.043Z,58.10
2022-12-06T04:44:11.043Z,65.55
2022-12-06T04:45:11.012Z,68.91
2022-12-06T04:46:11.079Z,61.35
2022-12-06T04:47:11.009Z,66.45
2022-12-06T04:48:11.007Z,69.29
2022-12-06T04:49:11.039Z,65.41
2022-12-06T04:50:11.019Z,66.93
2022-12-06T04:51:10.993Z,65.32
2022-12-06T04:52:11.010Z,65.07
2022-12-06T04:53:10.970Z,59.14
2022-12-06T04:54:10.947Z,65.07
2022-12-06T04:55:10.984Z,57.46
2022-12-06T04:56:10.973Z,60.42
2022-12-06T04:57:11.006Z,61.38
2022-12-06T04:58:10.924Z,67.30
2022-12-06T04:59:10.915Z,58.81
2022-12-06T05:00:10.906Z,63.97
2022-12-06T05:01:10.941Z,61.17
2022-12-06T05:02:11.421Z,64.31
2022-12-06T05:03:10.896Z,60.12
2022-12-06T05:04:10.979Z,70.39
2022-12-06T05:05:10.909Z,64.19
2022-12-06T05:06:10.881Z,66.84
2022-12-06T05:07:10.902Z,55.70
2022-12-06T05:08:10.942Z,54.94
2022-12-06T05:09:10.876Z,68.69
2022-12-06T05:10:10.869Z,64.27
2022-12-06T05:11:10.849Z,63.57
2022-12-06T05:12:10.900Z,63.19
2022-12-06T05:13:10.812Z,64.80
2022-12-06T05:14:10.809Z,64.35
2022-12-06T05:15:11.569Z,69.76
2022-12-06T05:16:10.892Z,60.34
2022-12-06T05:17:10.810Z,68.57
2022-12-06T05:18:10.779Z,65.98
2022-12-06T05:19:10.811Z,67.54
2022-12-06T05:20:10.799Z,63.40
2022-12-06T05:21:10.776Z,58.96
2022-12-06T05:22:10.770Z,66.15
2022-12-06T05:23:10.768Z,72.00
2022-12-06T05:24:10.768Z,68.24
2022-12-06T05:25:10.748Z,57.44
2022-12-06T05:26:10.737Z,65.33
2022-12-06T05:27:10.726Z,66.79
2022-12-06T05:28:10.734Z,69.80
2022-12-06T05:29:10.713Z,61.13
2022-12-06T05:30:10.714Z,70.18
2022-12-06T05:31:10.765Z,69.64
2022-12-06T05:32:10.719Z,66.53
2022-12-06T05:33:10.668Z,70.05
2022-12-06T05:34:10.683Z,69.91
2022-12-06T05:35:10.663Z,71.19
2022-12-06T05:36:10.740Z,67.08
2022-12-06T05:37:10.836Z,71.98
2022-12-06T05:38:10.697Z,62.88
2022-12-06T05:39:10.645Z,70.55
2022-12-06T05:40:11.039Z,70.15
2022-12-06T05:41:10.613Z,67.29
2022-12-06T05:42:13.391Z,71.22
2022-12-06T05:43:10.638Z,67.60
2022-12-06T05:44:10.587Z,61.65
2022-12-06T05:45:10.583Z,70.95
2022-12-06T05:46:10.640Z,69.07
2022-12-06T05:47:10.583Z,73.40
2022-12-06T05:48:10.564Z,71.95
2022-12-06T05:49:10.553Z,70.42
2022-12-06T05:50:10.541Z,67.27
2022-12-06T05:51:10.558Z,69.69
2022-12-06T05:52:10.527Z,68.57
2022-12-06T05:53:10.520Z,71.38
2022-12-06T05:54:10.525Z,72.98
2022-12-06T05:55:10.540Z,64.08
2022-12-06T05:56:10.516Z,66.03
2022-12-06T05:57:10.491Z,67.07
2022-12-06T05:58:10.503Z,68.99
2022-12-06T05:59:10.463Z,70.96
2022-12-06T06:00:10.515Z,63.33
2022-12-06T06:01:10.462Z,66.94
2022-12-06T06:02:10.575Z,71.81
2022-12-06T06:03:10.565Z,70.49
2022-12-06T06:04:10.436Z,70.79
2022-12-06T06:05:10.476Z,69.41
2022-12-06T06:06:10.416Z,69.46
2022-12-06T06:07:10.422Z,65.39
2022-12-06T06:08:10.475Z,70.58
2022-12-06T06:09:10.411Z,72.45
2022-12-06T06:10:10.380Z,69.33
2022-12-06T06:11:10.388Z,72.75
2022-12-06T06:12:12.612Z,70.76
2022-12-06T06:13:11.363Z,71.47
2022-12-06T06:14:10.351Z,71.65
2022-12-06T06:15:10.364Z,61.48
2022-12-06T06:16:10.404Z,75.03
2022-12-06T06:17:10.345Z,69.92
2022-12-06T06:18:10.329Z,70.81
2022-12-06T06:19:10.307Z,72.40
2022-12-06T06:20:10.328Z,72.12
2022-12-06T06:21:10.379Z,66.88
2022-12-06T06:22:10.318Z,68.03
2022-12-06T06:23:10.342Z,73.40
2022-12-06T06:24:10.305Z,72.61
2022-12-06T06:25:10.266Z,70.68
2022-12-06T06:26:10.296Z,70.79
2022-12-06T06:27:10.261Z,68.91
2022-12-06T06:28:10.302Z,73.28
2022-12-06T06:29:10.246Z,71.81
2022-12-06T06:30:10.262Z,73.77
2022-12-06T06:31:10.291Z,65.25
2022-12-06T06:32:10.302Z,72.78
2022-12-06T06:33:10.211Z,71.74
2022-12-06T06:34:10.233Z,73.98
2022-12-06T06:35:10.358Z,72.45
2022-12-06T06:36:10.195Z,71.53
2022-12-06T06:37:10.242Z,72.80
2022-12-06T06:38:10.184Z,71.00
2022-12-06T06:39:10.160Z,71.20
2022-12-06T06:40:10.159Z,71.14
2022-12-06T06:41:10.151Z,71.67
2022-12-06T06:42:10.179Z,71.99
2022-12-06T06:43:10.174Z,71.69
2022-12-06T06:44:10.136Z,66.74
2022-12-06T06:45:10.136Z,61.97
2022-12-06T06:46:10.190Z,70.17
2022-12-06T06:47:10.169Z,68.80
2022-12-06T06:48:10.121Z,67.98
2022-12-06T06:49:10.094Z,72.19
2022-12-06T06:50:10.093Z,74.44
2022-12-06T06:51:10.083Z,67.53
2022-12-06T06:52:10.071Z,68.17
2022-12-06T06:53:10.079Z,70.89
2022-12-06T06:54:10.075Z,72.27
2022-12-06T06:55:10.051Z,69.59
2022-12-06T06:56:10.106Z,72.02
2022-12-06T06:57:15.837Z,69.98
2022-12-06T06:58:12.028Z,69.15
2022-12-06T06:59:10.043Z,69.10
2022-12-06T07:00:10.041Z,70.75
2022-12-06T07:01:10.180Z,70.14
2022-12-06T07:02:10.048Z,71.80
2022-12-06T07:03:10.015Z,68.27
2022-12-06T07:04:09.979Z,70.37
2022-12-06T07:05:09.973Z,73.60
2022-12-06T07:06:09.985Z,68.89
2022-12-06T07:07:09.954Z,67.50
2022-12-06T07:08:10.083Z,74.03
2022-12-06T07:09:09.945Z,69.79
2022-12-06T07:10:09.945Z,71.21
2022-12-06T07:11:10.942Z,71.71
2022-12-06T07:12:09.915Z,68.25
2022-12-06T07:13:09.911Z,68.92
2022-12-06T07:14:09.964Z,68.21
2022-12-06T07:15:09.937Z,63.71
2022-12-06T07:16:09.911Z,67.07
2022-12-06T07:17:09.923Z,72.85
2022-12-06T07:18:09.865Z,62.60
2022-12-06T07:19:09.866Z,71.23
2022-12-06T07:20:09.880Z,64.19
2022-12-06T07:21:09.861Z,68.91
2022-12-06T07:22:09.860Z,67.16
2022-12-06T07:23:09.836Z,63.02
2022-12-06T07:24:09.852Z,70.46
2022-12-06T07:25:09.819Z,67.91
2022-12-06T07:26:09.806Z,68.71
2022-12-06T07:27:09.822Z,69.40
2022-12-06T07:28:09.789Z,67.15
2022-12-06T07:29:09.774Z,62.23
2022-12-06T07:30:14.433Z,65.95
2022-12-06T07:31:10.799Z,73.98
2022-12-06T07:32:09.809Z,66.92
2022-12-06T07:33:09.759Z,66.89
2022-12-06T07:34:09.740Z,68.86
2022-12-06T07:35:09.729Z,64.95
2022-12-06T07:36:12.396Z,71.48
2022-12-06T07:37:10.712Z,71.99
2022-12-06T07:38:09.744Z,68.72
2022-12-06T07:39:14.554Z,70.09
2022-12-06T07:40:11.721Z,65.81
2022-12-06T07:41:09.675Z,70.02
2022-12-06T07:42:09.673Z,69.91
2022-12-06T07:43:09.665Z,68.48
2022-12-06T07:44:09.726Z,68.53
2022-12-06T07:45:09.666Z,65.74
2022-12-06T07:46:09.687Z,64.87
2022-12-06T07:47:09.655Z,67.14
2022-12-06T07:48:09.632Z,69.65
2022-12-06T07:49:09.692Z,69.26
2022-12-06T07:50:15.971Z,71.46
2022-12-06T07:51:11.634Z,69.54
2022-12-06T07:52:09.626Z,71.72
2022-12-06T07:53:09.586Z,62.97
2022-12-06T07:54:09.591Z,65.74
2022-12-06T07:55:09.608Z,68.78
2022-12-06T07:56:09.590Z,68.69
2022-12-06T07:57:09.563Z,70.09
2022-12-06T07:58:09.564Z,67.62
2022-12-06T07:59:09.552Z,65.25
2022-12-06T08:00:09.558Z,69.06
2022-12-06T08:01:09.610Z,65.71
2022-12-06T08:02:09.656Z,61.69
2022-12-06T08:03:09.518Z,70.04
2022-12-06T08:04:09.598Z,67.66
2022-12-06T08:05:09.520Z,69.73
2022-12-06T08:06:09.502Z,71.02
2022-12-06T08:07:09.476Z,65.26
2022-12-06T08:08:09.530Z,65.93
2022-12-06T08:09:09.497Z,66.12
2022-12-06T08:10:09.505Z,71.40
2022-12-06T08:11:09.456Z,61.89
2022-12-06T08:12:09.450Z,71.03
2022-12-06T08:13:09.452Z,68.13
2022-12-06T08:14:09.455Z,68.63
2022-12-06T08:15:10.426Z,69.09
2022-12-06T08:16:09.489Z,68.69
2022-12-06T08:17:09.418Z,68.49
2022-12-06T08:18:09.425Z,65.70
2022-12-06T08:19:09.391Z,72.61
2022-12-06T08:20:09.398Z,66.01
2022-12-06T08:21:09.408Z,60.30
2022-12-06T08:22:09.380Z,63.78
2022-12-06T08:23:09.386Z,63.77
2022-12-06T08:24:09.406Z,65.02
2022-12-06T08:25:09.372Z,65.37
2022-12-06T08:26:09.360Z,72.79
2022-12-06T08:27:09.352Z,67.66
2022-12-06T08:28:09.340Z,59.91
2022-12-06T08:29:09.341Z,66.95
2022-12-06T08:30:09.322Z,70.10
2022-12-06T08:31:09.391Z,72.53
2022-12-06T08:32:09.322Z,66.20
2022-12-06T08:33:09.343Z,69.01
2022-12-06T08:34:09.303Z,71.05
2022-12-06T08:35:09.294Z,67.81
2022-12-06T08:36:09.269Z,67.06
2022-12-06T08:37:09.347Z,74.20
2022-12-06T08:38:09.335Z,69.69
2022-12-06T08:39:09.263Z,68.83
2022-12-06T08:40:09.258Z,69.26
2022-12-06T08:41:09.232Z,71.73
2022-12-06T08:42:09.250Z,69.43
2022-12-06T08:43:09.213Z,71.50
2022-12-06T08:44:09.218Z,66.66
2022-12-06T08:45:09.194Z,66.94
2022-12-06T08:46:09.274Z,61.27
2022-12-06T08:47:09.238Z,70.00
2022-12-06T08:48:09.191Z,64.69
2022-12-06T08:49:09.209Z,68.27
2022-12-06T08:50:09.246Z,58.34
2022-12-06T08:51:09.178Z,68.78
2022-12-06T08:52:09.178Z,69.52
2022-12-06T08:53:09.178Z,65.48
2022-12-06T08:54:09.144Z,67.16
2022-12-06T08:55:09.126Z,67.98
2022-12-06T08:56:09.118Z,66.11
2022-12-06T08:57:09.141Z,68.07
2022-12-06T08:58:09.157Z,73.49
2022-12-06T08:59:09.097Z,71.41
2022-12-06T09:00:09.114Z,72.63
2022-12-06T09:01:09.124Z,68.71
2022-12-06T09:02:09.129Z,69.01
2022-12-06T09:03:09.124Z,69.80
2022-12-06T09:04:09.200Z,62.93
2022-12-06T09:05:09.147Z,71.11
2022-12-06T09:06:09.048Z,61.03
2022-12-06T09:07:11.775Z,60.20
2022-12-06T09:08:10.130Z,70.63
2022-12-06T09:09:09.030Z,64.75
2022-12-06T09:10:09.013Z,64.94
2022-12-06T09:11:09.007Z,66.81
2022-12-06T09:12:08.998Z,68.04
2022-12-06T09:13:09.025Z,66.49
2022-12-06T09:14:09.018Z,70.61
2022-12-06T09:15:08.984Z,70.62
2022-12-06T09:16:09.020Z,67.86
2022-12-06T09:17:08.972Z,69.43
2022-12-06T09:18:08.951Z,70.41
2022-12-06T09:19:40.946Z,69.47
2022-12-06T09:20:09.178Z,61.48
2022-12-06T09:21:09.030Z,63.79
2022-12-06T09:22:08.913Z,67.59
2022-12-06T09:23:08.930Z,72.09
2022-12-06T09:24:08.906Z,63.51
2022-12-06T09:25:08.917Z,65.69
2022-12-06T09:26:08.890Z,66.73
2022-12-06T09:27:09.863Z,65.93
2022-12-06T09:28:08.871Z,70.24
2022-12-06T09:29:09.472Z,66.91
2022-12-06T09:30:08.890Z,67.76
2022-12-06T09:31:08.935Z,64.83
2022-12-06T09:32:08.840Z,71.69
2022-12-06T09:33:08.842Z,70.22
2022-12-06T09:34:08.853Z,69.44
2022-12-06T09:35:14.920Z,68.33
2022-12-06T09:36:10.846Z,58.63
2022-12-06T09:37:08.811Z,71.87
2022-12-06T09:38:08.817Z,69.94
2022-12-06T09:39:08.800Z,65.65
2022-12-06T09:40:08.810Z,62.41
2022-12-06T09:41:08.797Z,67.80
2022-12-06T09:42:08.809Z,68.47
2022-12-06T09:43:08.776Z,68.97
2022-12-06T09:44:08.748Z,64.44
2022-12-06T09:45:08.776Z,72.19
2022-12-06T09:46:08.785Z,64.83
2022-12-06T09:47:08.789Z,69.73
2022-12-06T09:48:08.783Z,68.52
2022-12-06T09:49:08.792Z,65.09
2022-12-06T09:50:08.762Z,74.41
2022-12-06T09:51:08.697Z,67.81
2022-12-06T09:52:08.781Z,72.57
2022-12-06T09:53:08.687Z,69.80
2022-12-06T09:54:08.691Z,67.05
2022-12-06T09:55:08.684Z,71.97
2022-12-06T09:56:08.680Z,63.54
2022-12-06T09:57:08.715Z,55.81
2022-12-06T09:58:09.423Z,65.21
2022-12-06T09:59:08.643Z,63.41
2022-12-06T10:00:11.816Z,64.86
2022-12-06T10:01:09.630Z,67.31
2022-12-06T10:02:08.690Z,68.03
2022-12-06T10:03:08.730Z,66.73
2022-12-06T10:04:08.613Z,66.40
2022-12-06T10:05:08.611Z,71.70
2022-12-06T10:06:08.593Z,71.17
2022-12-06T10:07:08.580Z,63.00
2022-12-06T10:08:08.775Z,67.71
2022-12-06T10:09:08.652Z,66.27
2022-12-06T10:10:08.566Z,65.35
2022-12-06T10:11:08.992Z,68.04
2022-12-06T10:12:09.556Z,62.99
2022-12-06T10:13:09.557Z,69.50
2022-12-06T10:14:08.582Z,69.43
2022-12-06T10:15:08.529Z,69.47
2022-12-06T10:16:08.662Z,73.08
2022-12-06T10:17:09.607Z,67.75
2022-12-06T10:18:09.587Z,70.78
2022-12-06T10:19:08.512Z,67.14
2022-12-06T10:20:08.529Z,69.11
2022-12-06T10:21:08.519Z,70.33
2022-12-06T10:22:08.474Z,63.35
2022-12-06T10:23:08.487Z,71.24
2022-12-06T10:24:08.468Z,71.20
2022-12-06T10:25:08.499Z,65.44
2022-12-06T10:26:08.449Z,68.35
2022-12-06T10:27:08.501Z,66.62
2022-12-06T10:28:08.429Z,69.80
2022-12-06T10:29:08.415Z,70.69
2022-12-06T10:30:08.430Z,70.34
2022-12-06T10:31:08.558Z,70.18
2022-12-06T10:32:08.429Z,68.80
2022-12-06T10:33:08.403Z,69.00
2022-12-06T10:34:08.404Z,70.36
2022-12-06T10:35:08.383Z,66.76
2022-12-06T10:36:08.421Z,69.43
2022-12-06T10:37:08.347Z,66.51
2022-12-06T10:38:08.365Z,60.89
2022-12-06T10:39:08.376Z,65.92
2022-12-06T10:40:08.349Z,70.78
2022-12-06T10:41:08.422Z,69.49
2022-12-06T10:42:08.372Z,65.16
2022-12-06T10:43:08.325Z,70.37
2022-12-06T10:44:08.358Z,65.55
2022-12-06T10:45:08.346Z,69.90
2022-12-06T10:46:09.292Z,62.16
2022-12-06T10:47:09.372Z,70.70
2022-12-06T10:48:08.314Z,64.67
2022-12-06T10:49:08.253Z,69.66
2022-12-06T10:50:08.290Z,70.24
2022-12-06T10:51:08.266Z,67.08
2022-12-06T10:52:08.272Z,72.54
2022-12-06T10:53:10.917Z,70.72
2022-12-06T10:54:08.254Z,68.78
2022-12-06T10:55:08.211Z,66.85
2022-12-06T10:56:08.325Z,68.01
2022-12-06T10:57:08.212Z,67.15
2022-12-06T10:58:08.238Z,70.26
2022-12-06T10:59:08.256Z,68.33
2022-12-06T11:00:14.710Z,65.40
2022-12-06T11:01:10.351Z,68.46
2022-12-06T11:02:08.225Z,67.04
2022-12-06T11:03:08.176Z,63.22
2022-12-06T11:04:08.163Z,68.79
2022-12-06T11:05:08.170Z,63.51
2022-12-06T11:06:08.207Z,61.91
2022-12-06T11:07:08.153Z,68.30
2022-12-06T11:08:08.222Z,68.76
2022-12-06T11:09:08.113Z,71.45
2022-12-06T11:10:08.108Z,68.09
2022-12-06T11:11:08.102Z,68.18
2022-12-06T11:12:08.091Z,71.11
2022-12-06T11:13:08.105Z,68.01
2022-12-06T11:14:08.108Z,71.17
2022-12-06T11:15:08.153Z,71.36
2022-12-06T11:16:08.124Z,65.92
2022-12-06T11:17:08.063Z,70.00
2022-12-06T11:18:08.120Z,69.12
2022-12-06T11:19:08.185Z,61.68
2022-12-06T11:20:08.031Z,72.13
2022-12-06T11:21:08.100Z,64.86
2022-12-06T11:22:08.007Z,68.36
2022-12-06T11:23:07.999Z,67.28
2022-12-06T11:24:08.023Z,68.29
2022-12-06T11:25:08.009Z,67.29
2022-12-06T11:26:07.986Z,64.52
2022-12-06T11:27:07.981Z,68.33
2022-12-06T11:28:08.011Z,66.17
2022-12-06T11:29:08.021Z,63.89
2022-12-06T11:30:07.956Z,66.07
2022-12-06T11:31:08.029Z,68.87
2022-12-06T11:32:07.978Z,66.88
2022-12-06T11:33:08.010Z,66.72
2022-12-06T11:34:07.997Z,66.66
2022-12-06T11:35:07.976Z,56.32
2022-12-06T11:36:07.915Z,67.38
2022-12-06T11:37:07.915Z,70.22
2022-12-06T11:38:07.913Z,72.15
2022-12-06T11:39:07.907Z,68.25
2022-12-06T11:40:07.911Z,70.16
2022-12-06T11:41:07.945Z,65.42
2022-12-06T11:42:07.896Z,67.84
2022-12-06T11:43:07.889Z,62.99
2022-12-06T11:44:07.903Z,62.81
2022-12-06T11:45:08.093Z,68.78
2022-12-06T11:46:07.872Z,71.61
2022-12-06T11:47:07.943Z,69.82
2022-12-06T11:48:07.841Z,65.95
2022-12-06T11:49:08.037Z,69.28
2022-12-06T11:50:10.192Z,64.83
2022-12-06T11:51:09.848Z,66.01
2022-12-06T11:52:07.812Z,67.82
2022-12-06T11:53:07.836Z,64.18
2022-12-06T11:54:07.786Z,68.61
2022-12-06T11:55:07.795Z,69.72
2022-12-06T11:56:07.762Z,64.82
2022-12-06T11:57:07.751Z,68.39
2022-12-06T11:58:07.780Z,69.16
2022-12-06T11:59:07.760Z,69.52
2022-12-06T12:00:07.750Z,61.42
2022-12-06T12:01:10.035Z,69.93
2022-12-06T12:02:07.756Z,72.64
2022-12-06T12:03:07.906Z,69.01
2022-12-06T12:04:07.696Z,69.94
2022-12-06T12:05:07.703Z,71.96
2022-12-06T12:06:07.704Z,69.03
2022-12-06T12:07:07.756Z,67.95
2022-12-06T12:08:07.749Z,69.16
2022-12-06T12:09:07.675Z,67.98
2022-12-06T12:10:07.679Z,68.33
2022-12-06T12:11:07.707Z,67.97
2022-12-06T12:12:07.709Z,67.67
2022-12-06T12:13:07.704Z,65.79
2022-12-06T12:14:07.616Z,60.91
2022-12-06T12:15:07.660Z,68.99
2022-12-06T12:16:07.705Z,66.19
2022-12-06T12:17:07.667Z,69.06
2022-12-06T12:18:07.601Z,67.62
2022-12-06T12:19:07.622Z,60.80
2022-12-06T12:20:07.617Z,68.13
2022-12-06T12:21:07.606Z,66.27
2022-12-06T12:22:08.344Z,68.98
2022-12-06T12:23:07.570Z,68.46
2022-12-06T12:24:07.703Z,69.80
2022-12-06T12:25:23.352Z,68.63
2022-12-06T12:26:09.541Z,70.05
2022-12-06T12:27:07.533Z,67.69
2022-12-06T12:28:07.550Z,70.28
2022-12-06T12:29:07.554Z,64.34
2022-12-06T12:30:07.554Z,71.30
2022-12-06T12:31:07.529Z,71.90
2022-12-06T12:32:08.206Z,61.06
2022-12-06T12:33:08.101Z,69.95
2022-12-06T12:34:07.535Z,68.70
2022-12-06T12:35:07.531Z,71.46
2022-12-06T12:36:07.539Z,70.97
2022-12-06T12:37:07.478Z,69.48
2022-12-06T12:38:07.509Z,71.35
2022-12-06T12:39:07.462Z,68.42
2022-12-06T12:40:39.527Z,67.50
2022-12-06T12:41:08.143Z,71.60
2022-12-06T12:42:39.380Z,66.58
2022-12-06T12:43:39.440Z,73.43
2022-12-06T12:44:36.368Z,70.89
2022-12-06T12:45:39.365Z,69.44
2022-12-06T12:46:40.145Z,68.20
2022-12-06T12:47:07.540Z,60.83
2022-12-06T12:48:10.197Z,69.10
2022-12-06T12:49:07.487Z,69.68
2022-12-06T12:50:07.779Z,70.96
2022-12-06T12:51:07.538Z,69.64
2022-12-06T12:52:07.494Z,69.83
2022-12-06T12:53:08.449Z,68.93
2022-12-06T12:54:07.488Z,66.74
2022-12-06T12:55:07.486Z,68.04
2022-12-06T12:56:07.828Z,72.11
2022-12-06T12:57:07.703Z,64.99
2022-12-06T12:58:07.603Z,69.02
2022-12-06T12:59:07.631Z,72.53
2022-12-06T13:00:15.172Z,61.39
2022-12-06T13:01:07.892Z,70.80
2022-12-06T13:02:07.908Z,66.28
2022-12-06T13:03:17.950Z,59.63
2022-12-06T13:04:09.567Z,70.59
2022-12-06T13:05:32.084Z,66.82
2022-12-06T13:06:09.861Z,69.07
2022-12-06T13:07:07.432Z,69.14
2022-12-06T13:08:08.830Z,70.36